Portada
METAR-TAF:

METAR-TAF

Aeroports :

La Paz, Mèxic

latitud: 24-04N, longitud: 110-22W, altitud: 21 m

Observació

L'informe es va fer fa 7 hores i 46 minuts, a les 04:46 UTC
Vent 10 kt del Sud
Temperatura 19°C
Humitat 64%
Pressió 1011 hPa
Visibilitat: 16.1 km
Cel clar

METAR: MMLP 250446Z 18010KT 10SM SKC 19/12 A2986 NOSIG

Hora: 06:32 (12:32 UTC)

Pronòstic

L'informe es va fer fa 8 hores i 12 minuts, a les 04:20 UTC
Pronòstic vàlid del 25 a les 06 UTC al 26 a les 06 UTC
Vent 10 kt del Sud
Visibilitat: 10 km
Cel clar
A partir de les 25 a les 1600 UTC
Vent 10 kt del Sud-Oest
Visibilitat: 10 km
Núvols disperses a una alçada de 20000 ft
A partir de les 26 a les 0300 UTC
Vent 10 kt del Sud
Visibilitat: 10 km
Cel clar

TAF: MMLP 250420Z 2506/2606 18010KT P6SM SKC FM251600 22010KT P6SM SCT200 FM260300 18010KT P6SM SKC

Observacions i pronòstics meteorològics de més de 4000 aeroports (METAR i TAF).

Les estacions disponibles són els punts grocs i vermells al mapa.

Posi el ratolí al punt desitjat per veure el nom de l'estació.

Feu clic per veure les observacions i els pronòstics meteorològics.

Per canviar el mapa: feu clic els botons verds amb una creu de color negre per apropar; al botó verd amb un guió per allunyar la imatge; o en les fletxes verdes per a mapes adjacents.


METAR-TAF: